sensor_id;sensor_type;location;lat;lon;timestamp;P1;durP1;ratioP1;P2;durP2;ratioP2
5937;SDS011;2994;51.220;4.412;2023-02-28T00:01:21;13.30;;;10.10;;
5937;SDS011;2994;51.220;4.412;2023-02-28T00:03:47;11.60;;;8.50;;
5937;SDS011;2994;51.220;4.412;2023-02-28T00:06:13;9.43;;;8.43;;
5937;SDS011;2994;51.220;4.412;2023-02-28T00:08:39;10.83;;;8.50;;
5937;SDS011;2994;51.220;4.412;2023-02-28T00:11:06;9.70;;;7.80;;
5937;SDS011;2994;51.220;4.412;2023-02-28T00:13:35;9.40;;;8.40;;
5937;SDS011;2994;51.220;4.412;2023-02-28T00:16:05;8.30;;;7.17;;
5937;SDS011;2994;51.220;4.412;2023-02-28T00:18:33;8.40;;;7.60;;
5937;SDS011;2994;51.220;4.412;2023-02-28T00:20:58;9.63;;;8.70;;
5937;SDS011;2994;51.220;4.412;2023-02-28T00:23:24;10.13;;;9.00;;
5937;SDS011;2994;51.220;4.412;2023-02-28T00:25:50;9.37;;;7.50;;
5937;SDS011;2994;51.220;4.412;2023-02-28T00:28:16;8.70;;;7.80;;
5937;SDS011;2994;51.220;4.412;2023-02-28T00:30:42;9.23;;;8.30;;
5937;SDS011;2994;51.220;4.412;2023-02-28T00:33:08;8.30;;;7.50;;
5937;SDS011;2994;51.220;4.412;2023-02-28T00:35:33;8.73;;;7.90;;
5937;SDS011;2994;51.220;4.412;2023-02-28T00:37:58;11.80;;;9.10;;
5937;SDS011;2994;51.220;4.412;2023-02-28T00:40:24;8.47;;;7.67;;
5937;SDS011;2994;51.220;4.412;2023-02-28T00:42:49;9.13;;;8.33;;
5937;SDS011;2994;51.220;4.412;2023-02-28T00:45:15;10.77;;;8.33;;
5937;SDS011;2994;51.220;4.412;2023-02-28T00:47:40;10.67;;;8.20;;
5937;SDS011;2994;51.220;4.412;2023-02-28T00:50:06;9.37;;;8.37;;
5937;SDS011;2994;51.220;4.412;2023-02-28T00:52:33;8.07;;;7.30;;
5937;SDS011;2994;51.220;4.412;2023-02-28T00:54:59;7.83;;;7.13;;
5937;SDS011;2994;51.220;4.412;2023-02-28T00:57:24;8.53;;;7.17;;
5937;SDS011;2994;51.220;4.412;2023-02-28T00:59:51;9.03;;;8.13;;
5937;SDS011;2994;51.220;4.412;2023-02-28T01:02:19;8.47;;;7.60;;
5937;SDS011;2994;51.220;4.412;2023-02-28T01:04:45;10.50;;;8.93;;
5937;SDS011;2994;51.220;4.412;2023-02-28T01:07:11;8.67;;;6.90;;
5937;SDS011;2994;51.220;4.412;2023-02-28T01:09:36;9.20;;;8.40;;
5937;SDS011;2994;51.220;4.412;2023-02-28T01:12:02;9.63;;;8.37;;
5937;SDS011;2994;51.220;4.412;2023-02-28T01:14:27;9.03;;;8.10;;
5937;SDS011;2994;51.220;4.412;2023-02-28T01:16:53;9.20;;;7.60;;
5937;SDS011;2994;51.220;4.412;2023-02-28T01:19:18;9.67;;;7.83;;
5937;SDS011;2994;51.220;4.412;2023-02-28T01:21:44;9.03;;;6.33;;
5937;SDS011;2994;51.220;4.412;2023-02-28T01:24:09;7.73;;;6.83;;
5937;SDS011;2994;51.220;4.412;2023-02-28T01:26:35;10.43;;;7.63;;
5937;SDS011;2994;51.220;4.412;2023-02-28T01:29:00;8.73;;;7.50;;
5937;SDS011;2994;51.220;4.412;2023-02-28T01:31:26;9.10;;;7.00;;
5937;SDS011;2994;51.220;4.412;2023-02-28T01:33:51;7.63;;;6.90;;
5937;SDS011;2994;51.220;4.412;2023-02-28T01:36:18;8.60;;;7.33;;
5937;SDS011;2994;51.220;4.412;2023-02-28T01:38:48;8.13;;;7.37;;
5937;SDS011;2994;51.220;4.412;2023-02-28T01:41:15;6.87;;;6.10;;
5937;SDS011;2994;51.220;4.412;2023-02-28T01:46:09;8.43;;;7.37;;
5937;SDS011;2994;51.220;4.412;2023-02-28T01:48:37;7.73;;;6.80;;
5937;SDS011;2994;51.220;4.412;2023-02-28T01:51:28;6.77;;;6.10;;
5937;SDS011;2994;51.220;4.412;2023-02-28T01:54:00;7.07;;;6.20;;
5937;SDS011;2994;51.220;4.412;2023-02-28T01:56:38;6.73;;;6.10;;
5937;SDS011;2994;51.220;4.412;2023-02-28T01:59:09;8.10;;;7.00;;
5937;SDS011;2994;51.220;4.412;2023-02-28T02:01:35;9.17;;;7.37;;
5937;SDS011;2994;51.220;4.412;2023-02-28T02:04:01;9.83;;;7.03;;
5937;SDS011;2994;51.220;4.412;2023-02-28T02:06:29;8.73;;;7.93;;
5937;SDS011;2994;51.220;4.412;2023-02-28T02:08:59;7.87;;;6.60;;
5937;SDS011;2994;51.220;4.412;2023-02-28T02:11:24;7.50;;;6.40;;
5937;SDS011;2994;51.220;4.412;2023-02-28T02:25:28;7.73;;;6.73;;
5937;SDS011;2994;51.220;4.412;2023-02-28T02:38:58;7.40;;;6.50;;
5937;SDS011;2994;51.220;4.412;2023-02-28T02:41:39;8.83;;;7.03;;
5937;SDS011;2994;51.220;4.412;2023-02-28T02:46:47;8.47;;;7.20;;
5937;SDS011;2994;51.220;4.412;2023-02-28T02:49:15;13.23;;;8.50;;
5937;SDS011;2994;51.220;4.412;2023-02-28T02:51:46;11.00;;;6.80;;
5937;SDS011;2994;51.220;4.412;2023-02-28T02:54:26;7.70;;;7.00;;
5937;SDS011;2994;51.220;4.412;2023-02-28T02:56:54;6.20;;;5.60;;
5937;SDS011;2994;51.220;4.412;2023-02-28T02:59:23;8.27;;;6.33;;
5937;SDS011;2994;51.220;4.412;2023-02-28T03:01:51;8.70;;;7.13;;
5937;SDS011;2994;51.220;4.412;2023-02-28T03:04:20;7.50;;;6.80;;
5937;SDS011;2994;51.220;4.412;2023-02-28T03:06:48;7.13;;;6.53;;
5937;SDS011;2994;51.220;4.412;2023-02-28T03:09:19;6.93;;;6.23;;
5937;SDS011;2994;51.220;4.412;2023-02-28T03:11:45;7.17;;;6.40;;
5937;SDS011;2994;51.220;4.412;2023-02-28T03:14:15;8.47;;;7.20;;
5937;SDS011;2994;51.220;4.412;2023-02-28T03:19:48;9.20;;;7.50;;
5937;SDS011;2994;51.220;4.412;2023-02-28T03:25:27;9.70;;;7.17;;
5937;SDS011;2994;51.220;4.412;2023-02-28T03:28:08;6.87;;;6.27;;
5937;SDS011;2994;51.220;4.412;2023-02-28T03:30:47;9.43;;;7.07;;
5937;SDS011;2994;51.220;4.412;2023-02-28T03:33:28;8.90;;;7.20;;
5937;SDS011;2994;51.220;4.412;2023-02-28T03:35:59;8.67;;;6.80;;
5937;SDS011;2994;51.220;4.412;2023-02-28T03:44:06;6.80;;;6.07;;
5937;SDS011;2994;51.220;4.412;2023-02-28T03:46:42;6.93;;;6.23;;
5937;SDS011;2994;51.220;4.412;2023-02-28T03:49:20;12.20;;;7.10;;
5937;SDS011;2994;51.220;4.412;2023-02-28T03:51:49;8.33;;;7.13;;
5937;SDS011;2994;51.220;4.412;2023-02-28T03:54:17;9.00;;;5.93;;
5937;SDS011;2994;51.220;4.412;2023-02-28T03:56:51;7.30;;;6.50;;
5937;SDS011;2994;51.220;4.412;2023-02-28T03:59:27;9.30;;;6.40;;
5937;SDS011;2994;51.220;4.412;2023-02-28T04:01:55;10.17;;;6.03;;
5937;SDS011;2994;51.220;4.412;2023-02-28T04:04:23;8.33;;;6.60;;
5937;SDS011;2994;51.220;4.412;2023-02-28T04:06:50;8.13;;;6.77;;
5937;SDS011;2994;51.220;4.412;2023-02-28T04:09:16;8.90;;;6.50;;
5937;SDS011;2994;51.220;4.412;2023-02-28T04:11:42;7.20;;;6.50;;
5937;SDS011;2994;51.220;4.412;2023-02-28T04:14:16;7.73;;;7.03;;
5937;SDS011;2994;51.220;4.412;2023-02-28T04:16:42;9.13;;;7.40;;
5937;SDS011;2994;51.220;4.412;2023-02-28T04:19:09;9.23;;;6.80;;
5937;SDS011;2994;51.220;4.412;2023-02-28T04:21:46;10.27;;;6.43;;
5937;SDS011;2994;51.220;4.412;2023-02-28T04:24:15;8.33;;;6.10;;
5937;SDS011;2994;51.220;4.412;2023-02-28T04:26:45;9.10;;;6.20;;
5937;SDS011;2994;51.220;4.412;2023-02-28T04:29:14;7.43;;;6.73;;
5937;SDS011;2994;51.220;4.412;2023-02-28T04:31:44;7.63;;;6.90;;
5937;SDS011;2994;51.220;4.412;2023-02-28T04:34:09;7.00;;;6.30;;
5937;SDS011;2994;51.220;4.412;2023-02-28T04:36:35;8.20;;;6.30;;
5937;SDS011;2994;51.220;4.412;2023-02-28T04:39:00;8.00;;;5.90;;
5937;SDS011;2994;51.220;4.412;2023-02-28T04:41:26;7.63;;;6.80;;
5937;SDS011;2994;51.220;4.412;2023-02-28T04:43:51;7.07;;;6.37;;
5937;SDS011;2994;51.220;4.412;2023-02-28T04:46:18;7.63;;;5.93;;
5937;SDS011;2994;51.220;4.412;2023-02-28T04:48:44;9.53;;;7.40;;
5937;SDS011;2994;51.220;4.412;2023-02-28T04:51:12;8.00;;;6.47;;
5937;SDS011;2994;51.220;4.412;2023-02-28T04:53:39;7.23;;;5.63;;
5937;SDS011;2994;51.220;4.412;2023-02-28T04:56:06;7.83;;;5.50;;
5937;SDS011;2994;51.220;4.412;2023-02-28T04:58:32;7.87;;;7.00;;
5937;SDS011;2994;51.220;4.412;2023-02-28T05:01:02;7.63;;;6.20;;
5937;SDS011;2994;51.220;4.412;2023-02-28T05:03:29;7.97;;;7.17;;
5937;SDS011;2994;51.220;4.412;2023-02-28T05:05:55;7.60;;;6.20;;
5937;SDS011;2994;51.220;4.412;2023-02-28T05:08:20;7.30;;;6.60;;
5937;SDS011;2994;51.220;4.412;2023-02-28T05:10:46;6.80;;;6.10;;
5937;SDS011;2994;51.220;4.412;2023-02-28T05:13:11;6.93;;;6.33;;
5937;SDS011;2994;51.220;4.412;2023-02-28T05:15:37;9.27;;;6.30;;
5937;SDS011;2994;51.220;4.412;2023-02-28T05:18:03;6.50;;;5.90;;
5937;SDS011;2994;51.220;4.412;2023-02-28T05:20:29;6.70;;;6.00;;
5937;SDS011;2994;51.220;4.412;2023-02-28T05:22:54;6.80;;;6.20;;
5937;SDS011;2994;51.220;4.412;2023-02-28T05:25:20;6.93;;;6.23;;
5937;SDS011;2994;51.220;4.412;2023-02-28T05:27:47;8.90;;;6.20;;
5937;SDS011;2994;51.220;4.412;2023-02-28T05:30:13;6.60;;;5.37;;
5937;SDS011;2994;51.220;4.412;2023-02-28T05:32:40;7.43;;;6.20;;
5937;SDS011;2994;51.220;4.412;2023-02-28T05:35:09;6.97;;;5.57;;
5937;SDS011;2994;51.220;4.412;2023-02-28T05:37:37;6.70;;;5.93;;
5937;SDS011;2994;51.220;4.412;2023-02-28T05:40:03;7.43;;;6.43;;
5937;SDS011;2994;51.220;4.412;2023-02-28T05:42:31;6.70;;;6.03;;
5937;SDS011;2994;51.220;4.412;2023-02-28T05:44:58;6.97;;;5.57;;
5937;SDS011;2994;51.220;4.412;2023-02-28T05:47:24;6.90;;;6.13;;
5937;SDS011;2994;51.220;4.412;2023-02-28T05:49:49;8.00;;;6.17;;
5937;SDS011;2994;51.220;4.412;2023-02-28T05:52:15;7.07;;;6.27;;
5937;SDS011;2994;51.220;4.412;2023-02-28T05:54:40;6.30;;;5.70;;
5937;SDS011;2994;51.220;4.412;2023-02-28T05:57:06;7.70;;;5.80;;
5937;SDS011;2994;51.220;4.412;2023-02-28T05:59:32;6.30;;;5.70;;
5937;SDS011;2994;51.220;4.412;2023-02-28T06:01:57;8.30;;;5.83;;
5937;SDS011;2994;51.220;4.412;2023-02-28T06:04:23;8.00;;;6.63;;
5937;SDS011;2994;51.220;4.412;2023-02-28T06:06:48;7.67;;;5.80;;
5937;SDS011;2994;51.220;4.412;2023-02-28T06:09:14;6.60;;;5.90;;
5937;SDS011;2994;51.220;4.412;2023-02-28T06:11:41;10.30;;;6.17;;
5937;SDS011;2994;51.220;4.412;2023-02-28T06:14:07;6.30;;;5.50;;
5937;SDS011;2994;51.220;4.412;2023-02-28T06:16:37;8.30;;;5.13;;
5937;SDS011;2994;51.220;4.412;2023-02-28T06:19:03;10.20;;;6.93;;
5937;SDS011;2994;51.220;4.412;2023-02-28T06:21:29;10.70;;;6.70;;
5937;SDS011;2994;51.220;4.412;2023-02-28T06:23:55;7.73;;;6.10;;
5937;SDS011;2994;51.220;4.412;2023-02-28T06:26:22;7.50;;;6.67;;
5937;SDS011;2994;51.220;4.412;2023-02-28T06:28:48;6.70;;;6.00;;
5937;SDS011;2994;51.220;4.412;2023-02-28T06:31:14;7.20;;;5.77;;
5937;SDS011;2994;51.220;4.412;2023-02-28T06:33:41;7.97;;;5.83;;
5937;SDS011;2994;51.220;4.412;2023-02-28T06:36:07;7.50;;;6.20;;
5937;SDS011;2994;51.220;4.412;2023-02-28T06:38:34;7.13;;;6.30;;
5937;SDS011;2994;51.220;4.412;2023-02-28T06:41:01;7.90;;;6.00;;
5937;SDS011;2994;51.220;4.412;2023-02-28T06:43:30;9.03;;;7.30;;
5937;SDS011;2994;51.220;4.412;2023-02-28T06:45:58;7.87;;;6.10;;
5937;SDS011;2994;51.220;4.412;2023-02-28T06:48:25;8.37;;;6.60;;
5937;SDS011;2994;51.220;4.412;2023-02-28T06:50:52;7.57;;;6.60;;
5937;SDS011;2994;51.220;4.412;2023-02-28T06:53:17;6.20;;;5.50;;
5937;SDS011;2994;51.220;4.412;2023-02-28T06:55:43;7.00;;;6.23;;
5937;SDS011;2994;51.220;4.412;2023-02-28T06:58:08;9.37;;;6.67;;
5937;SDS011;2994;51.220;4.412;2023-02-28T07:00:42;6.80;;;6.10;;
5937;SDS011;2994;51.220;4.412;2023-02-28T07:03:09;9.73;;;6.30;;
5937;SDS011;2994;51.220;4.412;2023-02-28T07:05:35;6.40;;;5.80;;
5937;SDS011;2994;51.220;4.412;2023-02-28T07:08:02;8.97;;;6.57;;
5937;SDS011;2994;51.220;4.412;2023-02-28T07:10:29;8.37;;;6.10;;
5937;SDS011;2994;51.220;4.412;2023-02-28T07:12:54;7.57;;;6.87;;
5937;SDS011;2994;51.220;4.412;2023-02-28T07:15:20;6.37;;;5.50;;
5937;SDS011;2994;51.220;4.412;2023-02-28T07:17:45;6.60;;;5.90;;
5937;SDS011;2994;51.220;4.412;2023-02-28T07:20:11;7.07;;;5.90;;
5937;SDS011;2994;51.220;4.412;2023-02-28T07:22:37;7.80;;;6.50;;
5937;SDS011;2994;51.220;4.412;2023-02-28T07:25:03;8.30;;;6.40;;
5937;SDS011;2994;51.220;4.412;2023-02-28T07:27:29;7.07;;;6.13;;
5937;SDS011;2994;51.220;4.412;2023-02-28T07:29:55;6.87;;;6.03;;
5937;SDS011;2994;51.220;4.412;2023-02-28T07:32:20;9.30;;;6.87;;
5937;SDS011;2994;51.220;4.412;2023-02-28T07:34:46;8.33;;;6.30;;
5937;SDS011;2994;51.220;4.412;2023-02-28T07:37:11;8.30;;;6.10;;
5937;SDS011;2994;51.220;4.412;2023-02-28T07:39:37;6.03;;;5.43;;
5937;SDS011;2994;51.220;4.412;2023-02-28T07:42:05;9.30;;;6.10;;
5937;SDS011;2994;51.220;4.412;2023-02-28T07:44:34;8.13;;;6.77;;
5937;SDS011;2994;51.220;4.412;2023-02-28T07:47:00;7.47;;;6.50;;
5937;SDS011;2994;51.220;4.412;2023-02-28T07:49:25;8.97;;;7.13;;
5937;SDS011;2994;51.220;4.412;2023-02-28T07:51:51;6.27;;;5.67;;
5937;SDS011;2994;51.220;4.412;2023-02-28T07:54:16;6.33;;;5.70;;
5937;SDS011;2994;51.220;4.412;2023-02-28T07:56:42;9.57;;;6.80;;
5937;SDS011;2994;51.220;4.412;2023-02-28T07:59:07;6.43;;;5.73;;
5937;SDS011;2994;51.220;4.412;2023-02-28T08:01:33;7.70;;;5.50;;
5937;SDS011;2994;51.220;4.412;2023-02-28T08:03:58;11.20;;;6.93;;
5937;SDS011;2994;51.220;4.412;2023-02-28T08:06:24;7.37;;;5.70;;
5937;SDS011;2994;51.220;4.412;2023-02-28T08:08:51;8.00;;;6.13;;
5937;SDS011;2994;51.220;4.412;2023-02-28T08:11:17;7.87;;;5.93;;
5937;SDS011;2994;51.220;4.412;2023-02-28T08:13:43;7.40;;;5.77;;
5937;SDS011;2994;51.220;4.412;2023-02-28T08:16:10;7.83;;;5.33;;
5937;SDS011;2994;51.220;4.412;2023-02-28T08:18:36;6.83;;;5.63;;
5937;SDS011;2994;51.220;4.412;2023-02-28T08:21:06;7.73;;;5.70;;
5937;SDS011;2994;51.220;4.412;2023-02-28T08:23:32;10.27;;;6.40;;
5937;SDS011;2994;51.220;4.412;2023-02-28T08:25:58;7.97;;;5.87;;
5937;SDS011;2994;51.220;4.412;2023-02-28T08:28:24;5.20;;;4.70;;
5937;SDS011;2994;51.220;4.412;2023-02-28T08:30:50;8.30;;;5.30;;
5937;SDS011;2994;51.220;4.412;2023-02-28T08:33:15;6.23;;;5.63;;
5937;SDS011;2994;51.220;4.412;2023-02-28T08:35:41;6.53;;;4.70;;
5937;SDS011;2994;51.220;4.412;2023-02-28T08:38:06;4.60;;;4.17;;
5937;SDS011;2994;51.220;4.412;2023-02-28T08:40:31;7.07;;;4.80;;
5937;SDS011;2994;51.220;4.412;2023-02-28T08:42:57;5.73;;;4.20;;
5937;SDS011;2994;51.220;4.412;2023-02-28T08:45:23;23.13;;;7.50;;
5937;SDS011;2994;51.220;4.412;2023-02-28T08:47:49;7.57;;;4.63;;
5937;SDS011;2994;51.220;4.412;2023-02-28T08:50:17;12.93;;;4.83;;
5937;SDS011;2994;51.220;4.412;2023-02-28T08:52:43;33.70;;;8.80;;
5937;SDS011;2994;51.220;4.412;2023-02-28T08:55:09;5.03;;;3.13;;
5937;SDS011;2994;51.220;4.412;2023-02-28T08:57:35;5.43;;;3.47;;
5937;SDS011;2994;51.220;4.412;2023-02-28T09:00:00;3.97;;;3.20;;
5937;SDS011;2994;51.220;4.412;2023-02-28T09:02:29;7.00;;;3.03;;
5937;SDS011;2994;51.220;4.412;2023-02-28T09:04:56;4.50;;;2.93;;
5937;SDS011;2994;51.220;4.412;2023-02-28T09:07:22;4.23;;;3.07;;
5937;SDS011;2994;51.220;4.412;2023-02-28T09:09:47;4.40;;;3.50;;
5937;SDS011;2994;51.220;4.412;2023-02-28T09:12:22;3.07;;;2.60;;
5937;SDS011;2994;51.220;4.412;2023-02-28T09:14:52;2.90;;;2.60;;
5937;SDS011;2994;51.220;4.412;2023-02-28T09:17:18;6.40;;;3.37;;
5937;SDS011;2994;51.220;4.412;2023-02-28T09:19:44;3.37;;;2.73;;
5937;SDS011;2994;51.220;4.412;2023-02-28T09:22:10;4.60;;;2.70;;
5937;SDS011;2994;51.220;4.412;2023-02-28T09:24:38;3.40;;;2.97;;
5937;SDS011;2994;51.220;4.412;2023-02-28T09:27:03;3.50;;;3.20;;
5937;SDS011;2994;51.220;4.412;2023-02-28T09:29:30;4.20;;;3.07;;
5937;SDS011;2994;51.220;4.412;2023-02-28T09:31:56;3.50;;;3.20;;
5937;SDS011;2994;51.220;4.412;2023-02-28T09:34:23;3.43;;;3.13;;
5937;SDS011;2994;51.220;4.412;2023-02-28T09:36:49;3.30;;;3.00;;
5937;SDS011;2994;51.220;4.412;2023-02-28T09:39:19;4.40;;;2.93;;
5937;SDS011;2994;51.220;4.412;2023-02-28T09:41:47;3.33;;;3.00;;
5937;SDS011;2994;51.220;4.412;2023-02-28T09:44:37;4.10;;;3.70;;
5937;SDS011;2994;51.220;4.412;2023-02-28T09:47:49;3.40;;;2.60;;
5937;SDS011;2994;51.220;4.412;2023-02-28T09:52:45;3.40;;;3.10;;
5937;SDS011;2994;51.220;4.412;2023-02-28T09:55:30;7.10;;;3.60;;
5937;SDS011;2994;51.220;4.412;2023-02-28T09:58:00;6.00;;;4.27;;
5937;SDS011;2994;51.220;4.412;2023-02-28T10:00:36;2.67;;;2.47;;
5937;SDS011;2994;51.220;4.412;2023-02-28T10:05:36;3.43;;;3.10;;
5937;SDS011;2994;51.220;4.412;2023-02-28T10:08:09;2.80;;;2.60;;
5937;SDS011;2994;51.220;4.412;2023-02-28T10:10:46;6.20;;;3.20;;
5937;SDS011;2994;51.220;4.412;2023-02-28T10:13:31;3.27;;;3.07;;
5937;SDS011;2994;51.220;4.412;2023-02-28T10:16:05;4.17;;;3.20;;
5937;SDS011;2994;51.220;4.412;2023-02-28T10:18:41;3.50;;;2.63;;
5937;SDS011;2994;51.220;4.412;2023-02-28T10:21:17;5.40;;;3.40;;
5937;SDS011;2994;51.220;4.412;2023-02-28T10:23:57;3.30;;;3.03;;
5937;SDS011;2994;51.220;4.412;2023-02-28T10:26:40;3.57;;;2.47;;
5937;SDS011;2994;51.220;4.412;2023-02-28T10:29:09;6.43;;;2.57;;
5937;SDS011;2994;51.220;4.412;2023-02-28T10:31:35;3.13;;;2.93;;
5937;SDS011;2994;51.220;4.412;2023-02-28T10:34:00;2.50;;;2.30;;
5937;SDS011;2994;51.220;4.412;2023-02-28T10:36:27;3.63;;;2.67;;
5937;SDS011;2994;51.220;4.412;2023-02-28T10:38:53;3.53;;;3.03;;
5937;SDS011;2994;51.220;4.412;2023-02-28T10:41:29;2.57;;;2.07;;
5937;SDS011;2994;51.220;4.412;2023-02-28T10:46:48;3.87;;;2.90;;
5937;SDS011;2994;51.220;4.412;2023-02-28T10:49:22;5.20;;;2.37;;
5937;SDS011;2994;51.220;4.412;2023-02-28T10:51:51;2.37;;;2.13;;
5937;SDS011;2994;51.220;4.412;2023-02-28T10:54:23;2.00;;;1.90;;
5937;SDS011;2994;51.220;4.412;2023-02-28T10:59:52;2.57;;;2.37;;
5937;SDS011;2994;51.220;4.412;2023-02-28T11:02:31;3.30;;;2.90;;
5937;SDS011;2994;51.220;4.412;2023-02-28T11:05:02;3.10;;;2.30;;
5937;SDS011;2994;51.220;4.412;2023-02-28T11:07:50;2.27;;;2.03;;
5937;SDS011;2994;51.220;4.412;2023-02-28T11:10:19;3.07;;;2.47;;
5937;SDS011;2994;51.220;4.412;2023-02-28T11:12:49;2.63;;;2.20;;
5937;SDS011;2994;51.220;4.412;2023-02-28T11:15:22;3.13;;;2.83;;
5937;SDS011;2994;51.220;4.412;2023-02-28T11:17:54;3.30;;;2.33;;
5937;SDS011;2994;51.220;4.412;2023-02-28T11:20:26;3.37;;;2.70;;
5937;SDS011;2994;51.220;4.412;2023-02-28T11:22:56;3.60;;;3.03;;
5937;SDS011;2994;51.220;4.412;2023-02-28T11:25:33;2.93;;;2.63;;
5937;SDS011;2994;51.220;4.412;2023-02-28T11:28:23;4.13;;;2.57;;
5937;SDS011;2994;51.220;4.412;2023-02-28T11:31:05;2.57;;;2.37;;
5937;SDS011;2994;51.220;4.412;2023-02-28T11:33:42;2.80;;;2.60;;
5937;SDS011;2994;51.220;4.412;2023-02-28T11:36:23;2.27;;;2.07;;
5937;SDS011;2994;51.220;4.412;2023-02-28T11:38:53;2.30;;;2.07;;
5937;SDS011;2994;51.220;4.412;2023-02-28T11:46:41;2.33;;;2.13;;
5937;SDS011;2994;51.220;4.412;2023-02-28T11:49:32;2.30;;;2.10;;
5937;SDS011;2994;51.220;4.412;2023-02-28T11:52:16;2.57;;;2.37;;
5937;SDS011;2994;51.220;4.412;2023-02-28T12:05:45;4.10;;;2.40;;
5937;SDS011;2994;51.220;4.412;2023-02-28T12:08:39;3.03;;;2.30;;
5937;SDS011;2994;51.220;4.412;2023-02-28T12:11:45;4.03;;;2.30;;
5937;SDS011;2994;51.220;4.412;2023-02-28T12:22:32;3.03;;;2.23;;
5937;SDS011;2994;51.220;4.412;2023-02-28T12:25:43;2.93;;;2.40;;
5937;SDS011;2994;51.220;4.412;2023-02-28T12:28:17;2.80;;;2.60;;
5937;SDS011;2994;51.220;4.412;2023-02-28T12:30:56;3.37;;;2.23;;
5937;SDS011;2994;51.220;4.412;2023-02-28T12:33:27;4.73;;;2.67;;
5937;SDS011;2994;51.220;4.412;2023-02-28T12:35:59;2.67;;;2.37;;
5937;SDS011;2994;51.220;4.412;2023-02-28T12:38:36;3.00;;;2.20;;
5937;SDS011;2994;51.220;4.412;2023-02-28T12:41:19;2.13;;;1.80;;
5937;SDS011;2994;51.220;4.412;2023-02-28T12:43:53;3.77;;;2.60;;
5937;SDS011;2994;51.220;4.412;2023-02-28T12:46:36;2.60;;;2.40;;
5937;SDS011;2994;51.220;4.412;2023-02-28T12:49:08;3.90;;;2.60;;
5937;SDS011;2994;51.220;4.412;2023-02-28T12:51:37;4.87;;;2.93;;
5937;SDS011;2994;51.220;4.412;2023-02-28T12:54:07;3.33;;;2.60;;
5937;SDS011;2994;51.220;4.412;2023-02-28T12:56:46;4.20;;;3.47;;
5937;SDS011;2994;51.220;4.412;2023-02-28T12:59:18;3.13;;;2.70;;
5937;SDS011;2994;51.220;4.412;2023-02-28T13:02:00;3.33;;;3.03;;
5937;SDS011;2994;51.220;4.412;2023-02-28T13:09:32;3.40;;;2.80;;
5937;SDS011;2994;51.220;4.412;2023-02-28T13:11:58;3.57;;;2.50;;
5937;SDS011;2994;51.220;4.412;2023-02-28T13:14:26;2.60;;;2.40;;
5937;SDS011;2994;51.220;4.412;2023-02-28T13:19:24;3.70;;;3.33;;
5937;SDS011;2994;51.220;4.412;2023-02-28T13:21:52;3.30;;;2.83;;
5937;SDS011;2994;51.220;4.412;2023-02-28T13:29:28;4.57;;;3.13;;
5937;SDS011;2994;51.220;4.412;2023-02-28T13:34:33;3.23;;;3.03;;
5937;SDS011;2994;51.220;4.412;2023-02-28T13:39:55;3.10;;;2.80;;
5937;SDS011;2994;51.220;4.412;2023-02-28T13:50:41;3.77;;;3.23;;
5937;SDS011;2994;51.220;4.412;2023-02-28T14:06:51;3.20;;;2.90;;
5937;SDS011;2994;51.220;4.412;2023-02-28T14:09:27;4.67;;;3.60;;
5937;SDS011;2994;51.220;4.412;2023-02-28T14:17:58;4.20;;;3.80;;
5937;SDS011;2994;51.220;4.412;2023-02-28T14:20:27;3.83;;;3.43;;
5937;SDS011;2994;51.220;4.412;2023-02-28T14:28:50;3.90;;;3.50;;
5937;SDS011;2994;51.220;4.412;2023-02-28T14:31:28;3.93;;;3.63;;
5937;SDS011;2994;51.220;4.412;2023-02-28T14:34:13;4.63;;;3.27;;
5937;SDS011;2994;51.220;4.412;2023-02-28T14:37:05;4.00;;;3.07;;
5937;SDS011;2994;51.220;4.412;2023-02-28T14:39:35;4.93;;;4.10;;
5937;SDS011;2994;51.220;4.412;2023-02-28T14:42:01;3.80;;;3.50;;
5937;SDS011;2994;51.220;4.412;2023-02-28T14:44:29;4.90;;;3.70;;
5937;SDS011;2994;51.220;4.412;2023-02-28T14:46:56;3.83;;;3.50;;
5937;SDS011;2994;51.220;4.412;2023-02-28T14:49:28;3.60;;;3.27;;
5937;SDS011;2994;51.220;4.412;2023-02-28T14:52:11;5.10;;;4.10;;
5937;SDS011;2994;51.220;4.412;2023-02-28T14:54:41;3.93;;;3.33;;
5937;SDS011;2994;51.220;4.412;2023-02-28T14:57:06;4.03;;;3.63;;
5937;SDS011;2994;51.220;4.412;2023-02-28T14:59:56;3.90;;;3.47;;
5937;SDS011;2994;51.220;4.412;2023-02-28T15:02:29;3.60;;;3.30;;
5937;SDS011;2994;51.220;4.412;2023-02-28T15:04:59;4.60;;;3.70;;
5937;SDS011;2994;51.220;4.412;2023-02-28T15:07:26;4.67;;;3.50;;
5937;SDS011;2994;51.220;4.412;2023-02-28T15:10:13;3.83;;;3.53;;
5937;SDS011;2994;51.220;4.412;2023-02-28T15:12:46;4.07;;;3.60;;
5937;SDS011;2994;51.220;4.412;2023-02-28T15:15:17;4.57;;;4.17;;
5937;SDS011;2994;51.220;4.412;2023-02-28T15:17:45;4.03;;;3.70;;
5937;SDS011;2994;51.220;4.412;2023-02-28T15:20:15;4.70;;;3.20;;
5937;SDS011;2994;51.220;4.412;2023-02-28T15:22:41;5.07;;;3.87;;
5937;SDS011;2994;51.220;4.412;2023-02-28T15:25:09;4.50;;;3.50;;
5937;SDS011;2994;51.220;4.412;2023-02-28T15:27:42;4.37;;;3.40;;
5937;SDS011;2994;51.220;4.412;2023-02-28T15:30:16;3.70;;;3.23;;
5937;SDS011;2994;51.220;4.412;2023-02-28T15:33:01;4.27;;;3.93;;
5937;SDS011;2994;51.220;4.412;2023-02-28T15:35:43;4.00;;;3.60;;
5937;SDS011;2994;51.220;4.412;2023-02-28T15:38:17;4.60;;;3.73;;
5937;SDS011;2994;51.220;4.412;2023-02-28T15:40:50;4.80;;;4.10;;
5937;SDS011;2994;51.220;4.412;2023-02-28T15:43:24;5.33;;;4.03;;
5937;SDS011;2994;51.220;4.412;2023-02-28T15:46:07;4.80;;;3.50;;
5937;SDS011;2994;51.220;4.412;2023-02-28T15:48:53;4.17;;;3.77;;
5937;SDS011;2994;51.220;4.412;2023-02-28T15:54:02;4.13;;;3.73;;
5937;SDS011;2994;51.220;4.412;2023-02-28T15:56:34;3.53;;;3.13;;
5937;SDS011;2994;51.220;4.412;2023-02-28T15:59:05;3.90;;;3.50;;
5937;SDS011;2994;51.220;4.412;2023-02-28T16:01:33;4.57;;;4.00;;
5937;SDS011;2994;51.220;4.412;2023-02-28T16:04:01;3.73;;;3.43;;
5937;SDS011;2994;51.220;4.412;2023-02-28T16:06:42;4.77;;;3.80;;
5937;SDS011;2994;51.220;4.412;2023-02-28T16:09:26;4.40;;;3.80;;
5937;SDS011;2994;51.220;4.412;2023-02-28T16:11:53;5.47;;;3.87;;
5937;SDS011;2994;51.220;4.412;2023-02-28T16:14:21;3.87;;;3.57;;
5937;SDS011;2994;51.220;4.412;2023-02-28T16:16:50;6.27;;;3.67;;
5937;SDS011;2994;51.220;4.412;2023-02-28T16:19:19;4.23;;;3.53;;
5937;SDS011;2994;51.220;4.412;2023-02-28T16:21:45;6.63;;;4.23;;
5937;SDS011;2994;51.220;4.412;2023-02-28T16:24:11;4.60;;;4.00;;
5937;SDS011;2994;51.220;4.412;2023-02-28T16:26:36;3.63;;;3.33;;
5937;SDS011;2994;51.220;4.412;2023-02-28T16:29:05;4.70;;;3.57;;
5937;SDS011;2994;51.220;4.412;2023-02-28T16:31:33;3.80;;;3.50;;
5937;SDS011;2994;51.220;4.412;2023-02-28T16:34:02;5.73;;;3.80;;
5937;SDS011;2994;51.220;4.412;2023-02-28T16:36:28;4.17;;;3.87;;
5937;SDS011;2994;51.220;4.412;2023-02-28T16:38:54;4.43;;;4.03;;
5937;SDS011;2994;51.220;4.412;2023-02-28T16:41:26;4.80;;;4.13;;
5937;SDS011;2994;51.220;4.412;2023-02-28T16:43:53;4.17;;;3.77;;
5937;SDS011;2994;51.220;4.412;2023-02-28T16:46:25;5.03;;;3.70;;
5937;SDS011;2994;51.220;4.412;2023-02-28T16:48:55;6.83;;;4.43;;
5937;SDS011;2994;51.220;4.412;2023-02-28T16:51:21;4.40;;;3.73;;
5937;SDS011;2994;51.220;4.412;2023-02-28T16:53:47;4.20;;;3.80;;
5937;SDS011;2994;51.220;4.412;2023-02-28T16:56:22;4.17;;;3.77;;
5937;SDS011;2994;51.220;4.412;2023-02-28T16:58:49;4.20;;;3.80;;
5937;SDS011;2994;51.220;4.412;2023-02-28T17:01:17;4.13;;;3.73;;
5937;SDS011;2994;51.220;4.412;2023-02-28T17:03:46;4.17;;;3.77;;
5937;SDS011;2994;51.220;4.412;2023-02-28T17:06:28;4.10;;;3.80;;
5937;SDS011;2994;51.220;4.412;2023-02-28T17:08:55;6.60;;;5.30;;
5937;SDS011;2994;51.220;4.412;2023-02-28T17:11:21;3.63;;;3.33;;
5937;SDS011;2994;51.220;4.412;2023-02-28T17:13:47;4.83;;;3.93;;
5937;SDS011;2994;51.220;4.412;2023-02-28T17:16:16;4.70;;;4.10;;
5937;SDS011;2994;51.220;4.412;2023-02-28T17:18:51;3.77;;;3.23;;
5937;SDS011;2994;51.220;4.412;2023-02-28T17:21:19;5.20;;;4.23;;
5937;SDS011;2994;51.220;4.412;2023-02-28T17:23:44;4.30;;;4.00;;
5937;SDS011;2994;51.220;4.412;2023-02-28T17:26:14;4.80;;;4.40;;
5937;SDS011;2994;51.220;4.412;2023-02-28T17:28:42;4.70;;;4.30;;
5937;SDS011;2994;51.220;4.412;2023-02-28T17:31:08;4.80;;;4.37;;
5937;SDS011;2994;51.220;4.412;2023-02-28T17:33:34;4.70;;;4.27;;
5937;SDS011;2994;51.220;4.412;2023-02-28T17:35:59;5.53;;;5.03;;
5937;SDS011;2994;51.220;4.412;2023-02-28T17:38:25;5.10;;;4.67;;
5937;SDS011;2994;51.220;4.412;2023-02-28T17:40:50;5.30;;;4.17;;